sensor_id;sensor_type;location;lat;lon;timestamp;P1;durP1;ratioP1;P2;durP2;ratioP2
42668;SDS011;29384;42.028;21.388;2023-02-22T00:01:30;27.90;;;13.25;;
42668;SDS011;29384;42.028;21.388;2023-02-22T00:06:42;51.55;;;16.15;;
42668;SDS011;29384;42.028;21.388;2023-02-22T00:12:12;38.47;;;15.68;;
42668;SDS011;29384;42.028;21.388;2023-02-22T00:14:37;31.65;;;15.52;;
42668;SDS011;29384;42.028;21.388;2023-02-22T00:17:04;32.85;;;16.50;;
42668;SDS011;29384;42.028;21.388;2023-02-22T00:19:29;20.27;;;12.15;;
42668;SDS011;29384;42.028;21.388;2023-02-22T00:21:54;34.08;;;14.88;;
42668;SDS011;29384;42.028;21.388;2023-02-22T00:27:24;35.03;;;17.42;;
42668;SDS011;29384;42.028;21.388;2023-02-22T00:29:50;40.65;;;19.77;;
42668;SDS011;29384;42.028;21.388;2023-02-22T00:32:15;43.47;;;18.67;;
42668;SDS011;29384;42.028;21.388;2023-02-22T00:34:40;32.00;;;16.08;;
42668;SDS011;29384;42.028;21.388;2023-02-22T00:37:08;29.65;;;15.43;;
42668;SDS011;29384;42.028;21.388;2023-02-22T00:39:34;26.27;;;14.02;;
42668;SDS011;29384;42.028;21.388;2023-02-22T00:41:59;39.28;;;16.38;;
42668;SDS011;29384;42.028;21.388;2023-02-22T00:44:24;39.65;;;15.63;;
42668;SDS011;29384;42.028;21.388;2023-02-22T00:46:50;27.77;;;15.48;;
42668;SDS011;29384;42.028;21.388;2023-02-22T00:49:15;40.40;;;15.35;;
42668;SDS011;29384;42.028;21.388;2023-02-22T00:51:41;31.05;;;16.13;;
42668;SDS011;29384;42.028;21.388;2023-02-22T00:57:09;32.28;;;15.55;;
42668;SDS011;29384;42.028;21.388;2023-02-22T00:59:34;32.28;;;17.08;;
42668;SDS011;29384;42.028;21.388;2023-02-22T01:01:59;30.58;;;16.13;;
42668;SDS011;29384;42.028;21.388;2023-02-22T01:04:25;27.50;;;16.15;;
42668;SDS011;29384;42.028;21.388;2023-02-22T01:06:50;38.90;;;16.00;;
42668;SDS011;29384;42.028;21.388;2023-02-22T01:12:18;26.63;;;14.32;;
42668;SDS011;29384;42.028;21.388;2023-02-22T01:14:44;31.48;;;13.38;;
42668;SDS011;29384;42.028;21.388;2023-02-22T01:17:10;30.42;;;14.45;;
42668;SDS011;29384;42.028;21.388;2023-02-22T01:19:35;35.95;;;16.58;;
42668;SDS011;29384;42.028;21.388;2023-02-22T01:22:00;33.25;;;14.75;;
42668;SDS011;29384;42.028;21.388;2023-02-22T01:27:28;29.30;;;14.93;;
42668;SDS011;29384;42.028;21.388;2023-02-22T01:29:53;28.92;;;13.80;;
42668;SDS011;29384;42.028;21.388;2023-02-22T01:32:19;31.63;;;15.35;;
42668;SDS011;29384;42.028;21.388;2023-02-22T01:34:44;31.35;;;14.80;;
42668;SDS011;29384;42.028;21.388;2023-02-22T01:37:10;35.00;;;13.57;;
42668;SDS011;29384;42.028;21.388;2023-02-22T01:42:38;28.40;;;13.77;;
42668;SDS011;29384;42.028;21.388;2023-02-22T01:48:18;28.92;;;12.98;;
42668;SDS011;29384;42.028;21.388;2023-02-22T01:50:54;36.95;;;16.67;;
42668;SDS011;29384;42.028;21.388;2023-02-22T01:53:23;49.67;;;19.02;;
42668;SDS011;29384;42.028;21.388;2023-02-22T01:55:50;36.88;;;15.90;;
42668;SDS011;29384;42.028;21.388;2023-02-22T01:58:16;40.25;;;16.33;;
42668;SDS011;29384;42.028;21.388;2023-02-22T02:00:42;49.60;;;17.17;;
42668;SDS011;29384;42.028;21.388;2023-02-22T02:03:13;33.60;;;15.65;;
42668;SDS011;29384;42.028;21.388;2023-02-22T02:05:40;40.00;;;16.75;;
42668;SDS011;29384;42.028;21.388;2023-02-22T02:08:15;40.60;;;15.45;;
42668;SDS011;29384;42.028;21.388;2023-02-22T02:10:44;37.10;;;17.15;;
42668;SDS011;29384;42.028;21.388;2023-02-22T02:13:09;41.53;;;15.48;;
42668;SDS011;29384;42.028;21.388;2023-02-22T02:15:35;33.15;;;15.25;;
42668;SDS011;29384;42.028;21.388;2023-02-22T02:18:07;29.98;;;14.32;;
42668;SDS011;29384;42.028;21.388;2023-02-22T02:21:37;27.95;;;12.65;;
42668;SDS011;29384;42.028;21.388;2023-02-22T02:23:32;24.90;;;12.30;;
42668;SDS011;29384;42.028;21.388;2023-02-22T02:39:09;23.38;;;10.95;;
42668;SDS011;29384;42.028;21.388;2023-02-22T02:41:40;19.88;;;8.85;;
42668;SDS011;29384;42.028;21.388;2023-02-22T02:46:33;25.25;;;8.10;;
42668;SDS011;29384;42.028;21.388;2023-02-22T02:49:04;28.52;;;9.30;;
42668;SDS011;29384;42.028;21.388;2023-02-22T02:51:35;24.23;;;7.85;;
42668;SDS011;29384;42.028;21.388;2023-02-22T02:54:01;15.70;;;7.47;;
42668;SDS011;29384;42.028;21.388;2023-02-22T02:56:27;20.55;;;8.85;;
42668;SDS011;29384;42.028;21.388;2023-02-22T02:58:53;33.47;;;7.47;;
42668;SDS011;29384;42.028;21.388;2023-02-22T03:01:33;13.57;;;8.98;;
42668;SDS011;29384;42.028;21.388;2023-02-22T03:04:22;33.67;;;9.13;;
42668;SDS011;29384;42.028;21.388;2023-02-22T03:07:09;18.55;;;9.13;;
42668;SDS011;29384;42.028;21.388;2023-02-22T03:09:39;20.58;;;9.45;;
42668;SDS011;29384;42.028;21.388;2023-02-22T03:12:29;27.50;;;8.55;;
42668;SDS011;29384;42.028;21.388;2023-02-22T03:15:10;34.55;;;8.75;;
42668;SDS011;29384;42.028;21.388;2023-02-22T03:20:14;22.88;;;10.93;;
42668;SDS011;29384;42.028;21.388;2023-02-22T03:22:44;23.98;;;10.65;;
42668;SDS011;29384;42.028;21.388;2023-02-22T03:25:16;38.88;;;13.52;;
42668;SDS011;29384;42.028;21.388;2023-02-22T03:27:51;31.58;;;13.40;;
42668;SDS011;29384;42.028;21.388;2023-02-22T03:32:45;36.53;;;12.45;;
42668;SDS011;29384;42.028;21.388;2023-02-22T03:35:21;23.60;;;11.40;;
42668;SDS011;29384;42.028;21.388;2023-02-22T03:37:49;31.63;;;12.82;;
42668;SDS011;29384;42.028;21.388;2023-02-22T03:40:17;21.83;;;11.60;;
42668;SDS011;29384;42.028;21.388;2023-02-22T03:42:47;22.48;;;10.63;;
42668;SDS011;29384;42.028;21.388;2023-02-22T03:45:15;26.98;;;12.02;;
42668;SDS011;29384;42.028;21.388;2023-02-22T03:47:45;26.08;;;11.52;;
42668;SDS011;29384;42.028;21.388;2023-02-22T03:50:13;41.88;;;11.32;;
42668;SDS011;29384;42.028;21.388;2023-02-22T03:52:40;25.60;;;13.05;;
42668;SDS011;29384;42.028;21.388;2023-02-22T03:55:07;27.90;;;11.25;;
42668;SDS011;29384;42.028;21.388;2023-02-22T03:57:35;25.70;;;11.20;;
42668;SDS011;29384;42.028;21.388;2023-02-22T04:00:03;26.33;;;12.52;;
42668;SDS011;29384;42.028;21.388;2023-02-22T04:02:32;30.33;;;12.57;;
42668;SDS011;29384;42.028;21.388;2023-02-22T04:04:57;34.65;;;12.68;;
42668;SDS011;29384;42.028;21.388;2023-02-22T04:07:23;25.33;;;11.25;;
42668;SDS011;29384;42.028;21.388;2023-02-22T04:09:48;24.90;;;11.63;;
42668;SDS011;29384;42.028;21.388;2023-02-22T04:12:13;20.58;;;9.40;;
42668;SDS011;29384;42.028;21.388;2023-02-22T04:14:39;24.23;;;11.93;;
42668;SDS011;29384;42.028;21.388;2023-02-22T04:17:04;23.95;;;11.73;;
42668;SDS011;29384;42.028;21.388;2023-02-22T04:19:29;21.50;;;10.05;;
42668;SDS011;29384;42.028;21.388;2023-02-22T04:21:55;25.52;;;11.30;;
42668;SDS011;29384;42.028;21.388;2023-02-22T04:24:20;21.52;;;10.85;;
42668;SDS011;29384;42.028;21.388;2023-02-22T04:26:45;27.45;;;11.30;;
42668;SDS011;29384;42.028;21.388;2023-02-22T04:29:10;19.85;;;10.50;;
42668;SDS011;29384;42.028;21.388;2023-02-22T04:31:36;20.08;;;10.63;;
42668;SDS011;29384;42.028;21.388;2023-02-22T04:34:01;20.77;;;11.02;;
42668;SDS011;29384;42.028;21.388;2023-02-22T04:36:27;22.58;;;11.40;;
42668;SDS011;29384;42.028;21.388;2023-02-22T04:38:56;23.08;;;11.82;;
42668;SDS011;29384;42.028;21.388;2023-02-22T04:41:21;28.60;;;13.88;;
42668;SDS011;29384;42.028;21.388;2023-02-22T04:43:46;27.35;;;13.25;;
42668;SDS011;29384;42.028;21.388;2023-02-22T04:46:12;22.05;;;11.73;;
42668;SDS011;29384;42.028;21.388;2023-02-22T04:48:37;23.25;;;10.63;;
42668;SDS011;29384;42.028;21.388;2023-02-22T04:51:03;29.98;;;10.40;;
42668;SDS011;29384;42.028;21.388;2023-02-22T04:53:28;22.63;;;11.05;;
42668;SDS011;29384;42.028;21.388;2023-02-22T04:58:56;15.07;;;10.05;;
42668;SDS011;29384;42.028;21.388;2023-02-22T05:01:21;30.85;;;12.68;;
42668;SDS011;29384;42.028;21.388;2023-02-22T05:03:47;19.38;;;10.95;;
42668;SDS011;29384;42.028;21.388;2023-02-22T05:06:12;20.38;;;9.18;;
42668;SDS011;29384;42.028;21.388;2023-02-22T05:08:38;15.77;;;9.32;;
42668;SDS011;29384;42.028;21.388;2023-02-22T05:14:06;19.20;;;10.98;;
42668;SDS011;29384;42.028;21.388;2023-02-22T05:16:31;23.50;;;10.10;;
42668;SDS011;29384;42.028;21.388;2023-02-22T05:18:57;24.90;;;12.00;;
42668;SDS011;29384;42.028;21.388;2023-02-22T05:21:22;18.45;;;11.10;;
42668;SDS011;29384;42.028;21.388;2023-02-22T05:23:47;18.70;;;10.75;;
42668;SDS011;29384;42.028;21.388;2023-02-22T05:29:15;18.23;;;9.80;;
42668;SDS011;29384;42.028;21.388;2023-02-22T05:31:41;19.92;;;9.90;;
42668;SDS011;29384;42.028;21.388;2023-02-22T05:34:06;19.48;;;9.20;;
42668;SDS011;29384;42.028;21.388;2023-02-22T05:36:31;25.00;;;12.63;;
42668;SDS011;29384;42.028;21.388;2023-02-22T05:38:56;22.27;;;13.40;;
42668;SDS011;29384;42.028;21.388;2023-02-22T05:44:25;16.52;;;10.40;;
42668;SDS011;29384;42.028;21.388;2023-02-22T05:46:50;18.98;;;11.07;;
42668;SDS011;29384;42.028;21.388;2023-02-22T05:49:15;27.85;;;14.10;;
42668;SDS011;29384;42.028;21.388;2023-02-22T05:51:41;26.98;;;14.48;;
42668;SDS011;29384;42.028;21.388;2023-02-22T05:54:06;27.17;;;13.48;;
42668;SDS011;29384;42.028;21.388;2023-02-22T05:56:32;27.02;;;13.82;;
42668;SDS011;29384;42.028;21.388;2023-02-22T05:58:57;29.10;;;13.82;;
42668;SDS011;29384;42.028;21.388;2023-02-22T06:01:23;32.05;;;15.35;;
42668;SDS011;29384;42.028;21.388;2023-02-22T06:03:49;30.48;;;13.38;;
42668;SDS011;29384;42.028;21.388;2023-02-22T06:06:15;29.50;;;12.82;;
42668;SDS011;29384;42.028;21.388;2023-02-22T06:08:40;28.42;;;14.05;;
42668;SDS011;29384;42.028;21.388;2023-02-22T06:14:08;30.52;;;14.38;;
42668;SDS011;29384;42.028;21.388;2023-02-22T06:16:34;35.25;;;15.20;;
42668;SDS011;29384;42.028;21.388;2023-02-22T06:19:00;32.20;;;14.02;;
42668;SDS011;29384;42.028;21.388;2023-02-22T06:21:26;26.50;;;14.98;;
42668;SDS011;29384;42.028;21.388;2023-02-22T06:23:51;24.30;;;14.75;;
42668;SDS011;29384;42.028;21.388;2023-02-22T06:29:19;34.85;;;13.73;;
42668;SDS011;29384;42.028;21.388;2023-02-22T06:31:45;30.67;;;12.88;;
42668;SDS011;29384;42.028;21.388;2023-02-22T06:34:10;27.08;;;12.60;;
42668;SDS011;29384;42.028;21.388;2023-02-22T06:36:35;30.92;;;13.95;;
42668;SDS011;29384;42.028;21.388;2023-02-22T06:39:00;27.65;;;12.68;;
42668;SDS011;29384;42.028;21.388;2023-02-22T06:44:28;40.22;;;14.18;;
42668;SDS011;29384;42.028;21.388;2023-02-22T06:46:54;34.28;;;15.15;;
42668;SDS011;29384;42.028;21.388;2023-02-22T06:49:20;33.15;;;16.27;;
42668;SDS011;29384;42.028;21.388;2023-02-22T06:51:45;41.10;;;19.98;;
42668;SDS011;29384;42.028;21.388;2023-02-22T06:54:11;36.90;;;19.83;;
42668;SDS011;29384;42.028;21.388;2023-02-22T06:59:39;41.15;;;16.08;;
42668;SDS011;29384;42.028;21.388;2023-02-22T07:02:05;34.42;;;18.90;;
42668;SDS011;29384;42.028;21.388;2023-02-22T07:04:30;28.02;;;16.65;;
42668;SDS011;29384;42.028;21.388;2023-02-22T07:06:55;21.45;;;11.88;;
42668;SDS011;29384;42.028;21.388;2023-02-22T07:09:21;22.05;;;11.50;;
42668;SDS011;29384;42.028;21.388;2023-02-22T07:14:49;41.10;;;18.77;;
42668;SDS011;29384;42.028;21.388;2023-02-22T07:17:14;37.45;;;17.13;;
42668;SDS011;29384;42.028;21.388;2023-02-22T07:19:39;36.58;;;16.45;;
42668;SDS011;29384;42.028;21.388;2023-02-22T07:22:04;33.33;;;16.10;;
42668;SDS011;29384;42.028;21.388;2023-02-22T07:24:30;31.42;;;17.17;;
42668;SDS011;29384;42.028;21.388;2023-02-22T07:29:58;28.77;;;15.32;;
42668;SDS011;29384;42.028;21.388;2023-02-22T07:32:23;32.55;;;13.15;;
42668;SDS011;29384;42.028;21.388;2023-02-22T07:34:49;29.73;;;13.73;;
42668;SDS011;29384;42.028;21.388;2023-02-22T07:37:14;24.10;;;13.30;;
42668;SDS011;29384;42.028;21.388;2023-02-22T07:39:39;26.73;;;12.40;;
42668;SDS011;29384;42.028;21.388;2023-02-22T07:45:10;20.92;;;13.43;;
42668;SDS011;29384;42.028;21.388;2023-02-22T07:47:35;23.15;;;13.48;;
42668;SDS011;29384;42.028;21.388;2023-02-22T07:50:00;26.17;;;13.15;;
42668;SDS011;29384;42.028;21.388;2023-02-22T07:52:26;55.67;;;14.05;;
42668;SDS011;29384;42.028;21.388;2023-02-22T07:54:51;20.95;;;11.95;;
42668;SDS011;29384;42.028;21.388;2023-02-22T08:00:30;31.45;;;14.93;;
42668;SDS011;29384;42.028;21.388;2023-02-22T08:02:56;38.13;;;15.00;;
42668;SDS011;29384;42.028;21.388;2023-02-22T08:05:23;27.25;;;13.40;;
42668;SDS011;29384;42.028;21.388;2023-02-22T08:07:49;29.50;;;16.75;;
42668;SDS011;29384;42.028;21.388;2023-02-22T08:10:14;26.05;;;14.50;;
42668;SDS011;29384;42.028;21.388;2023-02-22T08:12:40;27.58;;;14.75;;
42668;SDS011;29384;42.028;21.388;2023-02-22T08:15:06;29.02;;;13.77;;
42668;SDS011;29384;42.028;21.388;2023-02-22T08:17:32;31.05;;;12.82;;
42668;SDS011;29384;42.028;21.388;2023-02-22T08:19:57;28.15;;;13.20;;
42668;SDS011;29384;42.028;21.388;2023-02-22T08:22:23;29.25;;;12.60;;
42668;SDS011;29384;42.028;21.388;2023-02-22T08:24:48;30.85;;;14.60;;
42668;SDS011;29384;42.028;21.388;2023-02-22T08:30:21;28.17;;;14.63;;
42668;SDS011;29384;42.028;21.388;2023-02-22T08:32:47;30.38;;;14.52;;
42668;SDS011;29384;42.028;21.388;2023-02-22T08:35:13;27.92;;;12.95;;
42668;SDS011;29384;42.028;21.388;2023-02-22T08:37:46;51.22;;;12.13;;
42668;SDS011;29384;42.028;21.388;2023-02-22T08:40:11;32.47;;;12.75;;
42668;SDS011;29384;42.028;21.388;2023-02-22T08:45:39;24.40;;;12.10;;
42668;SDS011;29384;42.028;21.388;2023-02-22T08:48:05;34.35;;;12.68;;
42668;SDS011;29384;42.028;21.388;2023-02-22T08:50:30;29.13;;;13.88;;
42668;SDS011;29384;42.028;21.388;2023-02-22T08:53:00;35.75;;;12.52;;
42668;SDS011;29384;42.028;21.388;2023-02-22T08:55:27;30.05;;;13.82;;
42668;SDS011;29384;42.028;21.388;2023-02-22T08:57:54;27.35;;;13.27;;
42668;SDS011;29384;42.028;21.388;2023-02-22T09:00:20;29.52;;;14.43;;
42668;SDS011;29384;42.028;21.388;2023-02-22T09:02:48;34.50;;;13.23;;
42668;SDS011;29384;42.028;21.388;2023-02-22T09:05:14;26.30;;;11.32;;
42668;SDS011;29384;42.028;21.388;2023-02-22T09:07:41;24.50;;;12.63;;
42668;SDS011;29384;42.028;21.388;2023-02-22T09:10:07;24.52;;;11.65;;
42668;SDS011;29384;42.028;21.388;2023-02-22T09:15:34;27.63;;;11.68;;
42668;SDS011;29384;42.028;21.388;2023-02-22T09:18:00;27.98;;;10.43;;
42668;SDS011;29384;42.028;21.388;2023-02-22T09:20:26;28.45;;;13.02;;
42668;SDS011;29384;42.028;21.388;2023-02-22T09:22:52;28.85;;;10.63;;
42668;SDS011;29384;42.028;21.388;2023-02-22T09:25:17;22.85;;;9.80;;
42668;SDS011;29384;42.028;21.388;2023-02-22T09:30:47;25.77;;;11.32;;
42668;SDS011;29384;42.028;21.388;2023-02-22T09:33:16;36.28;;;13.88;;
42668;SDS011;29384;42.028;21.388;2023-02-22T09:35:42;26.55;;;11.10;;
42668;SDS011;29384;42.028;21.388;2023-02-22T09:38:10;27.58;;;11.15;;
42668;SDS011;29384;42.028;21.388;2023-02-22T09:40:36;26.42;;;10.70;;
42668;SDS011;29384;42.028;21.388;2023-02-22T09:48:30;30.45;;;13.93;;
42668;SDS011;29384;42.028;21.388;2023-02-22T09:50:57;35.88;;;15.18;;
42668;SDS011;29384;42.028;21.388;2023-02-22T09:53:29;22.75;;;13.82;;
42668;SDS011;29384;42.028;21.388;2023-02-22T09:56:03;36.92;;;17.52;;
42668;SDS011;29384;42.028;21.388;2023-02-22T10:01:00;36.30;;;16.23;;
42668;SDS011;29384;42.028;21.388;2023-02-22T10:04:03;26.27;;;13.95;;
42668;SDS011;29384;42.028;21.388;2023-02-22T10:06:21;32.95;;;12.85;;
42668;SDS011;29384;42.028;21.388;2023-02-22T10:08:47;26.27;;;13.45;;
42668;SDS011;29384;42.028;21.388;2023-02-22T10:11:25;24.20;;;11.25;;
42668;SDS011;29384;42.028;21.388;2023-02-22T10:19:00;25.85;;;11.25;;
42668;SDS011;29384;42.028;21.388;2023-02-22T10:26:26;21.50;;;10.40;;
42668;SDS011;29384;42.028;21.388;2023-02-22T10:31:20;24.83;;;12.27;;
42668;SDS011;29384;42.028;21.388;2023-02-22T10:33:47;29.17;;;11.20;;
42668;SDS011;29384;42.028;21.388;2023-02-22T10:36:17;23.02;;;9.65;;
42668;SDS011;29384;42.028;21.388;2023-02-22T10:38:44;16.13;;;7.45;;
42668;SDS011;29384;42.028;21.388;2023-02-22T10:41:23;12.90;;;7.20;;
42668;SDS011;29384;42.028;21.388;2023-02-22T10:43:50;11.55;;;6.55;;
42668;SDS011;29384;42.028;21.388;2023-02-22T10:46:16;13.05;;;7.55;;
42668;SDS011;29384;42.028;21.388;2023-02-22T10:48:43;12.75;;;5.85;;
42668;SDS011;29384;42.028;21.388;2023-02-22T10:51:09;10.23;;;5.10;;
42668;SDS011;29384;42.028;21.388;2023-02-22T10:53:35;18.42;;;6.38;;
42668;SDS011;29384;42.028;21.388;2023-02-22T10:56:19;13.70;;;7.20;;
42668;SDS011;29384;42.028;21.388;2023-02-22T10:58:58;10.25;;;6.88;;
42668;SDS011;29384;42.028;21.388;2023-02-22T11:01:36;12.10;;;5.68;;
42668;SDS011;29384;42.028;21.388;2023-02-22T11:04:04;13.00;;;7.18;;
42668;SDS011;29384;42.028;21.388;2023-02-22T11:06:33;10.35;;;5.90;;
42668;SDS011;29384;42.028;21.388;2023-02-22T11:09:09;5.15;;;4.22;;
42668;SDS011;29384;42.028;21.388;2023-02-22T11:11:34;6.43;;;3.95;;
42668;SDS011;29384;42.028;21.388;2023-02-22T11:14:00;9.65;;;4.13;;
42668;SDS011;29384;42.028;21.388;2023-02-22T11:19:04;4.03;;;3.72;;
42668;SDS011;29384;42.028;21.388;2023-02-22T11:21:30;7.25;;;3.22;;
42668;SDS011;29384;42.028;21.388;2023-02-22T11:24:04;5.28;;;3.22;;
42668;SDS011;29384;42.028;21.388;2023-02-22T11:26:34;3.58;;;3.28;;
42668;SDS011;29384;42.028;21.388;2023-02-22T11:29:04;6.70;;;2.55;;
42668;SDS011;29384;42.028;21.388;2023-02-22T11:31:33;3.47;;;3.17;;
42668;SDS011;29384;42.028;21.388;2023-02-22T11:34:05;4.00;;;2.88;;
42668;SDS011;29384;42.028;21.388;2023-02-22T11:36:35;3.22;;;2.92;;
42668;SDS011;29384;42.028;21.388;2023-02-22T11:39:20;3.88;;;3.45;;
42668;SDS011;29384;42.028;21.388;2023-02-22T11:41:46;8.57;;;3.63;;
42668;SDS011;29384;42.028;21.388;2023-02-22T11:44:29;5.40;;;3.10;;
42668;SDS011;29384;42.028;21.388;2023-02-22T11:46:56;1.40;;;1.30;;
42668;SDS011;29384;42.028;21.388;2023-02-22T11:49:31;2.97;;;2.70;;
42668;SDS011;29384;42.028;21.388;2023-02-22T11:58:08;1.52;;;1.38;;
42668;SDS011;29384;42.028;21.388;2023-02-22T12:00:17;5.68;;;2.15;;
42668;SDS011;29384;42.028;21.388;2023-02-22T12:03:05;2.15;;;1.95;;
42668;SDS011;29384;42.028;21.388;2023-02-22T12:08:39;1.92;;;1.83;;
42668;SDS011;29384;42.028;21.388;2023-02-22T12:11:10;3.33;;;1.98;;
42668;SDS011;29384;42.028;21.388;2023-02-22T12:16:15;4.60;;;2.20;;
42668;SDS011;29384;42.028;21.388;2023-02-22T12:21:26;3.83;;;2.10;;
42668;SDS011;29384;42.028;21.388;2023-02-22T12:26:19;4.03;;;2.58;;
42668;SDS011;29384;42.028;21.388;2023-02-22T12:31:20;2.97;;;1.67;;
42668;SDS011;29384;42.028;21.388;2023-02-22T12:36:14;6.75;;;2.33;;
42668;SDS011;29384;42.028;21.388;2023-02-22T12:38:41;2.88;;;2.20;;
42668;SDS011;29384;42.028;21.388;2023-02-22T12:41:10;4.65;;;2.97;;
42668;SDS011;29384;42.028;21.388;2023-02-22T12:43:55;3.38;;;1.65;;
42668;SDS011;29384;42.028;21.388;2023-02-22T12:46:32;9.02;;;1.98;;
42668;SDS011;29384;42.028;21.388;2023-02-22T12:49:05;3.88;;;1.58;;
42668;SDS011;29384;42.028;21.388;2023-02-22T12:51:54;2.55;;;1.23;;
42668;SDS011;29384;42.028;21.388;2023-02-22T12:54:36;1.17;;;1.17;;
42668;SDS011;29384;42.028;21.388;2023-02-22T13:00:13;2.05;;;1.17;;
42668;SDS011;29384;42.028;21.388;2023-02-22T13:02:43;0.32;;;0.32;;
42668;SDS011;29384;42.028;21.388;2023-02-22T13:05:13;0.68;;;0.68;;
42668;SDS011;29384;42.028;21.388;2023-02-22T13:18:31;0.65;;;0.65;;
42668;SDS011;29384;42.028;21.388;2023-02-22T13:23:45;2.75;;;1.48;;
42668;SDS011;29384;42.028;21.388;2023-02-22T13:31:44;1.13;;;1.13;;
42668;SDS011;29384;42.028;21.388;2023-02-22T13:51:02;1.70;;;1.27;;
42668;SDS011;29384;42.028;21.388;2023-02-22T13:56:10;1.20;;;1.13;;
42668;SDS011;29384;42.028;21.388;2023-02-22T14:09:50;1.52;;;1.42;;
42668;SDS011;29384;42.028;21.388;2023-02-22T14:18:20;3.38;;;1.67;;
42668;SDS011;29384;42.028;21.388;2023-02-22T14:20:46;2.00;;;1.85;;
42668;SDS011;29384;42.028;21.388;2023-02-22T14:23:37;2.25;;;1.50;;
42668;SDS011;29384;42.028;21.388;2023-02-22T14:28:49;2.03;;;1.63;;
42668;SDS011;29384;42.028;21.388;2023-02-22T14:36:15;1.55;;;1.45;;
42668;SDS011;29384;42.028;21.388;2023-02-22T14:38:42;3.35;;;2.05;;
42668;SDS011;29384;42.028;21.388;2023-02-22T14:41:08;3.15;;;1.80;;
42668;SDS011;29384;42.028;21.388;2023-02-22T14:43:34;2.10;;;1.45;;
42668;SDS011;29384;42.028;21.388;2023-02-22T14:46:00;2.75;;;1.75;;
42668;SDS011;29384;42.028;21.388;2023-02-22T14:51:07;2.13;;;1.92;;
42668;SDS011;29384;42.028;21.388;2023-02-22T14:53:42;3.35;;;1.70;;
42668;SDS011;29384;42.028;21.388;2023-02-22T14:56:30;2.95;;;2.00;;
42668;SDS011;29384;42.028;21.388;2023-02-22T14:58:57;5.43;;;1.63;;
42668;SDS011;29384;42.028;21.388;2023-02-22T15:01:35;2.47;;;1.42;;
42668;SDS011;29384;42.028;21.388;2023-02-22T15:04:16;2.05;;;1.92;;
42668;SDS011;29384;42.028;21.388;2023-02-22T15:06:42;2.97;;;1.83;;
42668;SDS011;29384;42.028;21.388;2023-02-22T15:11:37;6.63;;;2.33;;
42668;SDS011;29384;42.028;21.388;2023-02-22T15:14:11;2.55;;;1.80;;
42668;SDS011;29384;42.028;21.388;2023-02-22T15:16:39;5.07;;;2.03;;
42668;SDS011;29384;42.028;21.388;2023-02-22T15:19:10;13.60;;;2.65;;
42668;SDS011;29384;42.028;21.388;2023-02-22T15:21:35;3.00;;;2.17;;
42668;SDS011;29384;42.028;21.388;2023-02-22T15:24:09;2.08;;;1.98;;
42668;SDS011;29384;42.028;21.388;2023-02-22T15:26:40;4.25;;;2.42;;
42668;SDS011;29384;42.028;21.388;2023-02-22T15:29:13;10.90;;;2.83;;
42668;SDS011;29384;42.028;21.388;2023-02-22T15:31:39;5.03;;;1.90;;
42668;SDS011;29384;42.028;21.388;2023-02-22T15:34:29;3.55;;;1.95;;
42668;SDS011;29384;42.028;21.388;2023-02-22T15:36:55;2.47;;;2.20;;
42668;SDS011;29384;42.028;21.388;2023-02-22T15:39:30;2.47;;;2.03;;
42668;SDS011;29384;42.028;21.388;2023-02-22T15:44:26;2.08;;;1.98;;
42668;SDS011;29384;42.028;21.388;2023-02-22T15:46:52;6.07;;;2.67;;
42668;SDS011;29384;42.028;21.388;2023-02-22T15:49:20;1.60;;;1.50;;
42668;SDS011;29384;42.028;21.388;2023-02-22T15:51:47;7.60;;;2.60;;
42668;SDS011;29384;42.028;21.388;2023-02-22T15:54:17;5.45;;;1.52;;
42668;SDS011;29384;42.028;21.388;2023-02-22T15:56:47;3.83;;;2.95;;
42668;SDS011;29384;42.028;21.388;2023-02-22T15:59:15;5.03;;;2.40;;
42668;SDS011;29384;42.028;21.388;2023-02-22T16:01:43;7.43;;;3.22;;
42668;SDS011;29384;42.028;21.388;2023-02-22T16:04:18;7.90;;;2.80;;
42668;SDS011;29384;42.028;21.388;2023-02-22T16:06:45;7.28;;;2.58;;
42668;SDS011;29384;42.028;21.388;2023-02-22T16:09:11;5.43;;;3.67;;
42668;SDS011;29384;42.028;21.388;2023-02-22T16:11:38;5.57;;;3.65;;
42668;SDS011;29384;42.028;21.388;2023-02-22T16:17:08;9.45;;;2.85;;
42668;SDS011;29384;42.028;21.388;2023-02-22T16:19:36;7.07;;;3.42;;
42668;SDS011;29384;42.028;21.388;2023-02-22T16:22:02;35.20;;;4.85;;
42668;SDS011;29384;42.028;21.388;2023-02-22T16:24:31;23.70;;;3.55;;
42668;SDS011;29384;42.028;21.388;2023-02-22T16:27:05;7.88;;;3.45;;
42668;SDS011;29384;42.028;21.388;2023-02-22T16:31:56;13.90;;;4.10;;
42668;SDS011;29384;42.028;21.388;2023-02-22T16:34:22;3.58;;;2.97;;
42668;SDS011;29384;42.028;21.388;2023-02-22T16:36:48;8.32;;;3.53;;
42668;SDS011;29384;42.028;21.388;2023-02-22T16:41:43;5.53;;;3.22;;
42668;SDS011;29384;42.028;21.388;2023-02-22T16:44:10;4.90;;;3.88;;
42668;SDS011;29384;42.028;21.388;2023-02-22T16:46:37;9.10;;;3.25;;
42668;SDS011;29384;42.028;21.388;2023-02-22T16:49:02;9.23;;;3.67;;
42668;SDS011;29384;42.028;21.388;2023-02-22T16:51:30;8.27;;;4.47;;
42668;SDS011;29384;42.028;21.388;2023-02-22T16:53:57;6.75;;;3.53;;
42668;SDS011;29384;42.028;21.388;2023-02-22T16:56:25;4.97;;;3.60;;
42668;SDS011;29384;42.028;21.388;2023-02-22T16:58:51;6.75;;;4.05;;
42668;SDS011;29384;42.028;21.388;2023-02-22T17:01:17;11.98;;;4.32;;
42668;SDS011;29384;42.028;21.388;2023-02-22T17:03:43;3.40;;;3.10;;
42668;SDS011;29384;42.028;21.388;2023-02-22T17:06:08;16.13;;;4.07;;
42668;SDS011;29384;42.028;21.388;2023-02-22T17:08:35;4.68;;;3.72;;
42668;SDS011;29384;42.028;21.388;2023-02-22T17:11:00;4.20;;;3.63;;
42668;SDS011;29384;42.028;21.388;2023-02-22T17:13:26;4.32;;;3.75;;
42668;SDS011;29384;42.028;21.388;2023-02-22T17:18:55;15.48;;;5.15;;
42668;SDS011;29384;42.028;21.388;2023-02-22T17:21:21;11.73;;;5.00;;
42668;SDS011;29384;42.028;21.388;2023-02-22T17:23:46;5.55;;;3.58;;
42668;SDS011;29384;42.028;21.388;2023-02-22T17:26:11;16.15;;;4.40;;
42668;SDS011;29384;42.028;21.388;2023-02-22T17:28:37;5.75;;;4.45;;
42668;SDS011;29384;42.028;21.388;2023-02-22T17:34:05;7.18;;;4.57;;
42668;SDS011;29384;42.028;21.388;2023-02-22T17:36:31;10.70;;;3.80;;
42668;SDS011;29384;42.028;21.388;2023-02-22T17:38:57;21.35;;;5.45;;
42668;SDS011;29384;42.028;21.388;2023-02-22T17:41:23;12.65;;;6.90;;
42668;SDS011;29384;42.028;21.388;2023-02-22T17:43:48;25.38;;;10.60;;
42668;SDS011;29384;42.028;21.388;2023-02-22T17:46:14;40.42;;;15.93;;
42668;SDS011;29384;42.028;21.388;2023-02-22T17:48:40;33.53;;;16.77;;
42668;SDS011;29384;42.028;21.388;2023-02-22T17:51:05;43.80;;;18.33;;
42668;SDS011;29384;42.028;21.388;2023-02-22T17:53:31;37.92;;;16.15;;
42668;SDS011;29384;42.028;21.388;2023-02-22T17:55:56;26.42;;;13.30;;
42668;SDS011;29384;42.028;21.388;2023-02-22T17:58:22;35.35;;;13.18;;
42668;SDS011;29384;42.028;21.388;2023-02-22T18:03:53;17.05;;;10.15;;
42668;SDS011;29384;42.028;21.388;2023-02-22T18:06:19;22.85;;;12.23;;
42668;SDS011;29384;42.028;21.388;2023-02-22T18:08:45;28.77;;;11.73;;
42668;SDS011;29384;42.028;21.388;2023-02-22T18:11:10;27.77;;;12.30;;
42668;SDS011;29384;42.028;21.388;2023-02-22T18:13:35;15.63;;;9.98;;